createdAt,value
2023-02-24T12:36:03.361Z,97862.41
2023-02-24T12:38:48.232Z,97850.31
2023-02-24T12:41:14.923Z,97857.81
2023-02-24T12:43:54.942Z,97853.41
2023-02-24T12:46:26.971Z,97848.09
2023-02-24T12:48:53.630Z,97841.66
2023-02-24T12:51:59.773Z,97846.69
2023-02-24T12:54:46.168Z,97842.16
2023-02-24T12:57:39.270Z,97840.41
2023-02-24T13:00:13.656Z,97825.56
2023-02-24T13:02:50.951Z,97824.84
2023-02-24T13:05:59.012Z,97820.28
2023-02-24T13:08:40.352Z,97810.06
2023-02-24T13:11:25.222Z,97813.13
2023-02-24T13:14:12.081Z,97803.41
2023-02-24T13:16:38.815Z,97812.94
2023-02-24T13:19:19.739Z,97806.19
2023-02-24T13:22:03.642Z,97804.13
2023-02-24T13:24:30.704Z,97799.28
2023-02-24T13:27:17.858Z,97792.41
2023-02-24T13:29:56.592Z,97793.16
2023-02-24T13:32:36.919Z,97787.28
2023-02-24T13:35:05.742Z,97787.09
2023-02-24T13:37:40.975Z,97780.94
2023-02-24T13:40:16.939Z,97783.50
2023-02-24T13:42:57.271Z,97777.56
2023-02-24T13:45:29.260Z,97761.03
2023-02-24T13:48:10.905Z,97767.72
2023-02-24T13:51:02.399Z,97760.31
2023-02-24T13:54:04.420Z,97766.84
2023-02-24T13:56:41.911Z,97759.25
2023-02-24T13:59:17.946Z,97762.66
2023-02-24T14:02:03.696Z,97762.75
2023-02-24T14:04:33.317Z,97764.69
2023-02-24T14:07:04.037Z,97743.97
2023-02-24T14:09:43.158Z,97739.16
2023-02-24T14:12:20.528Z,97745.41
2023-02-24T14:14:49.005Z,97736.69
2023-02-24T14:17:32.080Z,97720.47
2023-02-24T14:20:19.939Z,97730.97
2023-02-24T14:22:49.563Z,97723.78
2023-02-24T14:25:17.964Z,97723.78
2023-02-24T14:27:48.548Z,97727.38
2023-02-24T14:30:39.697Z,97718.34
2023-02-24T14:33:17.785Z,97718.16
2023-02-24T14:35:47.959Z,97709.53
2023-02-24T14:38:37.926Z,97715.50
2023-02-24T14:41:07.282Z,97709.03
2023-02-24T14:43:41.308Z,97707.38
2023-02-24T14:46:08.096Z,97706.84
2023-02-24T14:48:34.860Z,97699.88
2023-02-24T14:51:12.308Z,97694.34
2023-02-24T14:53:55.064Z,97692.41
2023-02-24T14:56:28.041Z,97687.56
2023-02-24T14:59:23.783Z,97684.59
2023-02-24T15:01:54.861Z,97685.19
2023-02-24T15:04:24.360Z,97682.13
2023-02-24T15:06:51.363Z,97684.38
2023-02-24T15:09:33.044Z,97674.22
2023-02-24T15:12:10.210Z,97677.28
2023-02-24T15:14:37.268Z,97673.00
2023-02-24T15:17:16.894Z,97658.41
2023-02-24T15:19:46.895Z,97663.75
2023-02-24T15:22:28.387Z,97659.13
2023-02-24T15:25:13.702Z,97657.06
2023-02-24T15:28:00.103Z,97658.41
2023-02-24T15:30:32.192Z,97658.19
2023-02-24T15:33:05.644Z,97663.00
2023-02-24T15:35:34.723Z,97659.97
2023-02-24T15:38:02.583Z,97655.03
2023-02-24T15:40:30.165Z,97656.38
2023-02-24T15:42:58.636Z,97644.78
2023-02-24T15:45:39.692Z,97632.22
2023-02-24T15:48:31.341Z,97635.53
2023-02-24T15:51:04.947Z,97633.56
2023-02-24T15:53:31.708Z,97624.03
2023-02-24T15:55:58.463Z,97633.28
2023-02-24T15:58:25.616Z,97617.56
2023-02-24T16:00:52.610Z,97627.00
2023-02-24T16:03:19.584Z,97620.53
2023-02-24T16:05:46.255Z,97624.25
2023-02-24T16:08:18.824Z,97617.28
2023-02-24T16:10:45.953Z,97614.50
2023-02-24T16:13:20.899Z,97622.91
2023-02-24T16:15:48.324Z,97612.03
2023-02-24T16:18:22.765Z,97607.91
2023-02-24T16:20:57.065Z,97613.16
2023-02-24T16:23:26.872Z,97609.88
2023-02-24T16:25:59.022Z,97602.69
2023-02-24T16:28:26.648Z,97601.69
2023-02-24T16:30:53.909Z,97591.75
2023-02-24T16:33:23.549Z,97595.53
2023-02-24T16:35:54.720Z,97600.44
2023-02-24T16:38:26.457Z,97593.97
2023-02-24T16:40:54.764Z,97599.22
2023-02-24T16:43:21.430Z,97592.97
2023-02-24T16:45:48.386Z,97601.38
2023-02-24T16:48:26.530Z,97594.50
2023-02-24T16:50:53.621Z,97592.88
2023-02-24T16:53:22.745Z,97598.19
2023-02-24T16:55:50.661Z,97595.13
2023-02-24T16:58:18.071Z,97587.41
2023-02-24T17:00:48.050Z,97590.50
2023-02-24T17:03:17.478Z,97592.16
2023-02-24T17:05:44.419Z,97589.78
2023-02-24T17:08:11.525Z,97588.97
2023-02-24T17:10:40.060Z,97588.16
2023-02-24T17:13:07.059Z,97581.38
2023-02-24T17:15:33.720Z,97592.34
2023-02-24T17:18:00.530Z,97593.41
2023-02-24T17:20:27.486Z,97589.19
2023-02-24T17:22:54.412Z,97590.19
2023-02-24T17:25:25.075Z,97584.25
2023-02-24T17:27:52.880Z,97585.19
2023-02-24T17:30:23.166Z,97579.31
2023-02-24T17:32:50.269Z,97581.81
2023-02-24T17:35:17.343Z,97564.34
2023-02-24T17:37:44.154Z,97566.81
2023-02-24T17:40:12.311Z,97575.03
2023-02-24T17:42:39.510Z,97576.03
2023-02-24T17:45:07.147Z,97580.38
2023-02-24T17:47:34.528Z,97586.94
2023-02-24T17:50:01.913Z,97573.38
2023-02-24T17:52:29.500Z,97549.28
2023-02-24T17:54:56.470Z,97575.63
2023-02-24T17:57:23.556Z,97588.88
2023-02-24T17:59:50.258Z,97579.63
2023-02-24T18:02:18.293Z,97582.09
2023-02-24T18:04:45.018Z,97582.91
2023-02-24T18:07:12.621Z,97586.28
2023-02-24T18:09:39.382Z,97581.81
2023-02-24T18:12:06.875Z,97580.75
2023-02-24T18:14:33.725Z,97586.50
2023-02-24T18:17:00.466Z,97577.38
2023-02-24T18:19:27.149Z,97580.25
2023-02-24T18:21:53.958Z,97579.31
2023-02-24T18:24:22.834Z,97573.91
2023-02-24T18:26:49.930Z,97564.25
2023-02-24T18:29:16.695Z,97569.16
2023-02-24T18:31:43.704Z,97567.44
2023-02-24T18:34:10.533Z,97564.78
2023-02-24T18:36:37.256Z,97559.44
2023-02-24T18:39:04.939Z,97560.66
2023-02-24T18:41:32.502Z,97559.22
2023-02-24T18:43:59.345Z,97553.78
2023-02-24T18:46:27.068Z,97558.00
2023-02-24T18:48:55.845Z,97558.81
2023-02-24T18:51:23.605Z,97551.31
2023-02-24T18:53:52.795Z,97555.97
2023-02-24T18:56:23.660Z,97564.34
2023-02-24T18:58:52.529Z,97547.13
2023-02-24T19:01:22.481Z,97555.22
2023-02-24T19:03:51.030Z,97546.94
2023-02-24T19:06:19.440Z,97547.22
2023-02-24T19:08:48.471Z,97542.50
2023-02-24T19:11:17.628Z,97547.53
2023-02-24T19:13:47.602Z,97551.31
2023-02-24T19:16:15.802Z,97556.16
2023-02-24T19:18:42.989Z,97552.25
2023-02-24T19:21:11.016Z,97557.41
2023-02-24T19:23:38.530Z,97548.16
2023-02-24T19:26:07.194Z,97539.94
2023-02-24T19:28:33.874Z,97545.50
2023-02-24T19:31:00.664Z,97551.44
2023-02-24T19:33:27.391Z,97542.28
2023-02-24T19:35:59.567Z,97538.94
2023-02-24T19:38:26.596Z,97530.50
2023-02-24T19:40:53.286Z,97525.47
2023-02-24T19:43:19.951Z,97534.41
2023-02-24T19:45:46.797Z,97536.97
2023-02-24T19:48:13.541Z,97527.13
2023-02-24T19:50:41.544Z,97531.94
2023-02-24T19:53:08.696Z,97529.91
2023-02-24T19:55:35.451Z,97530.50
2023-02-24T19:58:02.476Z,97533.59
2023-02-24T20:00:30.226Z,97534.41
2023-02-24T20:02:57.049Z,97524.66
2023-02-24T20:05:25.138Z,97520.47
2023-02-24T20:07:51.803Z,97528.88
2023-02-24T20:10:18.455Z,97526.22
2023-02-24T20:12:45.105Z,97533.91
2023-02-24T20:15:11.951Z,97513.78
2023-02-24T20:17:38.685Z,97513.59
2023-02-24T20:20:05.909Z,97516.88
2023-02-24T20:22:32.668Z,97518.09
2023-02-24T20:24:59.304Z,97516.66
2023-02-24T20:27:26.043Z,97511.16
2023-02-24T20:29:55.832Z,97519.13
2023-02-24T20:32:23.435Z,97511.16
2023-02-24T20:34:50.462Z,97517.09
2023-02-24T20:37:17.321Z,97511.34
2023-02-24T20:39:44.195Z,97515.75
2023-02-24T20:42:12.236Z,97509.19
2023-02-24T20:44:38.852Z,97498.84
2023-02-24T20:47:05.700Z,97504.88
2023-02-24T20:49:32.857Z,97510.63
2023-02-24T20:51:59.594Z,97498.59
2023-02-24T20:54:26.507Z,97504.16
2023-02-24T20:56:53.310Z,97505.06
2023-02-24T20:59:22.161Z,97503.53
2023-02-24T21:01:49.623Z,97504.38
2023-02-24T21:04:18.926Z,97504.38
2023-02-24T21:06:47.859Z,97499.34
2023-02-24T21:09:15.468Z,97513.91
2023-02-24T21:11:42.297Z,97504.78
2023-02-24T21:14:16.623Z,97497.00
2023-02-24T21:16:46.085Z,97507.16
2023-02-24T21:19:12.970Z,97505.50
2023-02-24T21:21:39.602Z,97491.25
2023-02-24T21:24:06.647Z,97493.59
2023-02-24T21:26:33.336Z,97496.06
2023-02-24T21:28:59.931Z,97488.16
2023-02-24T21:31:27.264Z,97494.13
2023-02-24T21:33:54.685Z,97495.03
2023-02-24T21:36:25.604Z,97484.19
2023-02-24T21:38:53.142Z,97495.84
2023-02-24T21:41:20.059Z,97489.69
2023-02-24T21:43:47.358Z,97490.44
2023-02-24T21:46:15.920Z,97481.78
2023-02-24T21:48:43.301Z,97482.75
2023-02-24T21:51:12.674Z,97469.81
2023-02-24T21:53:43.528Z,97473.50
2023-02-24T21:56:16.709Z,97470.22
2023-02-24T21:58:46.151Z,97457.50
2023-02-24T22:01:19.629Z,97452.59
2023-02-24T22:03:46.813Z,97458.75
2023-02-24T22:06:14.982Z,97459.69
2023-02-24T22:08:45.657Z,97462.25
2023-02-24T22:11:17.345Z,97447.47
2023-02-24T22:13:45.211Z,97451.47
2023-02-24T22:16:19.281Z,97447.25
2023-02-24T22:18:49.140Z,97454.66
2023-02-24T22:21:18.603Z,97450.13
2023-02-24T22:23:47.660Z,97437.66
2023-02-24T22:26:16.745Z,97432.41
2023-02-24T22:28:45.189Z,97438.34
2023-02-24T22:31:13.709Z,97428.41
2023-02-24T22:33:42.485Z,97428.19
2023-02-24T22:36:15.256Z,97420.19
2023-02-24T22:38:43.019Z,97420.91
2023-02-24T22:41:13.358Z,97420.03
2023-02-24T22:43:40.082Z,97413.75
2023-02-24T22:46:10.906Z,97412.31
2023-02-24T22:48:38.183Z,97414.06
2023-02-24T22:51:07.887Z,97413.88
2023-02-24T22:53:37.402Z,97409.38
2023-02-24T22:56:04.218Z,97414.91
2023-02-24T22:58:32.263Z,97410.81
2023-02-24T23:00:59.806Z,97409.19
2023-02-24T23:03:30.974Z,97417.56
2023-02-24T23:06:04.043Z,97407.22
2023-02-24T23:08:32.514Z,97414.28
2023-02-24T23:11:19.092Z,97410.59
2023-02-24T23:13:48.466Z,97418.41
2023-02-24T23:16:18.586Z,97420.34
2023-02-24T23:18:48.696Z,97412.16
2023-02-24T23:21:16.265Z,97412.22
2023-02-24T23:23:44.469Z,97413.66
2023-02-24T23:26:14.133Z,97404.47
2023-02-24T23:28:40.850Z,97399.75
2023-02-24T23:31:07.667Z,97395.34
2023-02-24T23:33:34.564Z,97400.25
2023-02-24T23:36:06.818Z,97384.28
2023-02-24T23:38:34.301Z,97390.69
2023-02-24T23:41:00.960Z,97384.59
2023-02-24T23:43:27.584Z,97375.44
2023-02-24T23:45:54.273Z,97380.28
2023-02-24T23:48:21.227Z,97366.63
2023-02-24T23:50:47.909Z,97358.75
2023-02-24T23:53:14.863Z,97360.59
2023-02-24T23:55:41.456Z,97357.53
2023-02-24T23:58:08.516Z,97354.06
